Time;durP1;ratioP1;P1;durP2;ratioP2;P2;SDS_P1;SDS_P2;PMS_P1;PMS_P2;Temp;Humidity;BMP_temperature;BMP_pressure;BME280_temperature;BME280_humidity;BME280_pressure;Samples;Min_cycle;Max_cycle;Signal;HPM_P1;HPM_P2
2022/01/31 00:02:19;;;;;;;16.23;9.90;;;5.20;60.90;;;;;;5049899;28;20264;-68
2022/01/31 00:04:46;;;;;;;11.32;5.78;;;5.10;60.70;;;;;;5050387;28;20217;-67
2022/01/31 00:07:13;;;;;;;16.40;6.07;;;5.20;61.00;;;;;;5050714;28;20273;-66
2022/01/31 00:09:45;;;;;;;21.00;7.85;;;5.20;60.90;;;;;;5049767;28;20705;-67
2022/01/31 00:12:16;;;;;;;12.88;6.50;;;5.10;60.90;;;;;;5050146;28;20240;-66
2022/01/31 00:14:46;;;;;;;14.38;5.40;;;5.00;61.50;;;;;;5049955;28;20272;-66
2022/01/31 00:17:15;;;;;;;13.13;4.00;;;5.00;62.30;;;;;;5049808;28;20186;-67
2022/01/31 00:19:43;;;;;;;8.77;3.80;;;5.00;61.90;;;;;;5049327;28;20191;-67
2022/01/31 00:22:12;;;;;;;7.55;3.53;;;5.00;61.50;;;;;;5049703;28;20293;-67
2022/01/31 00:24:41;;;;;;;12.80;3.85;;;5.00;61.10;;;;;;5049924;28;20610;-67
2022/01/31 00:27:10;;;;;;;8.88;5.10;;;5.00;60.80;;;;;;5046259;28;20251;-69
2022/01/31 00:29:37;;;;;;;9.45;4.40;;;4.90;60.90;;;;;;5050269;28;20280;-66
2022/01/31 00:32:05;;;;;;;7.57;4.43;;;4.90;61.40;;;;;;5050233;28;20244;-66
2022/01/31 00:34:33;;;;;;;11.98;6.10;;;4.80;61.90;;;;;;5049531;28;20641;-66
2022/01/31 00:37:00;;;;;;;12.07;5.05;;;4.80;62.20;;;;;;5050024;28;20643;-67
2022/01/31 00:39:27;;;;;;;14.50;5.10;;;4.80;62.30;;;;;;5050406;28;20198;-66
2022/01/31 00:41:55;;;;;;;10.00;4.70;;;4.80;63.00;;;;;;5050295;28;20202;-66
2022/01/31 00:44:27;;;;;;;11.43;4.88;;;4.80;63.20;;;;;;5050459;28;20194;-66
2022/01/31 00:46:59;;;;;;;6.07;3.33;;;4.80;63.20;;;;;;5054700;28;20221;-66
2022/01/31 00:49:36;;;;;;;6.35;4.00;;;4.80;63.10;;;;;;5056305;28;20596;-66
2022/01/31 00:52:04;;;;;;;12.30;4.38;;;4.80;63.00;;;;;;5056304;28;20196;-66
2022/01/31 00:54:30;;;;;;;10.40;4.38;;;4.90;62.80;;;;;;5056331;28;20229;-66
2022/01/31 00:56:59;;;;;;;9.77;3.80;;;4.90;62.70;;;;;;5056269;28;20198;-66
2022/01/31 00:59:26;;;;;;;6.53;3.97;;;4.90;62.70;;;;;;5056026;28;20190;-66
2022/01/31 01:01:54;;;;;;;7.13;4.88;;;4.80;63.10;;;;;;5055855;28;20190;-66
2022/01/31 01:04:21;;;;;;;8.45;4.82;;;4.80;63.50;;;;;;5056247;28;20281;-66
2022/01/31 01:06:47;;;;;;;12.95;5.63;;;4.80;63.40;;;;;;5055939;28;20285;-66
2022/01/31 01:09:15;;;;;;;13.05;4.38;;;4.70;63.40;;;;;;5056117;28;20198;-66
2022/01/31 01:11:42;;;;;;;10.77;3.85;;;4.70;63.60;;;;;;5056078;28;20190;-66
2022/01/31 01:14:10;;;;;;;15.43;5.90;;;4.60;63.80;;;;;;5055991;28;20340;-66
2022/01/31 01:16:37;;;;;;;15.90;4.72;;;4.60;63.90;;;;;;5055666;28;20186;-66
2022/01/31 01:19:05;;;;;;;10.05;4.13;;;4.70;64.10;;;;;;5055952;28;20244;-67
2022/01/31 01:21:31;;;;;;;9.48;5.07;;;4.70;64.10;;;;;;5055839;28;20193;-66
2022/01/31 01:23:59;;;;;;;9.15;4.05;;;4.70;64.30;;;;;;5055966;28;20190;-66
2022/01/31 01:26:25;;;;;;;7.38;4.78;;;4.70;64.00;;;;;;5055772;28;20194;-66
2022/01/31 01:28:52;;;;;;;8.30;4.43;;;4.70;64.10;;;;;;5055608;28;20218;-66
2022/01/31 01:31:21;;;;;;;12.32;4.55;;;4.70;64.40;;;;;;5055449;28;20244;-67
2022/01/31 01:33:48;;;;;;;10.20;4.63;;;4.70;65.20;;;;;;5055619;28;20218;-66
2022/01/31 01:36:15;;;;;;;8.80;4.53;;;4.70;65.60;;;;;;5055684;28;20237;-66
2022/01/31 01:38:42;;;;;;;9.63;4.60;;;4.70;65.40;;;;;;5055623;28;20559;-67
2022/01/31 01:41:08;;;;;;;11.30;4.82;;;4.70;65.20;;;;;;5055475;28;20209;-66
2022/01/31 01:43:38;;;;;;;8.05;4.50;;;4.70;65.20;;;;;;5055380;28;20194;-67
2022/01/31 01:46:05;;;;;;;11.93;5.43;;;4.70;65.30;;;;;;5055396;28;20186;-67
2022/01/31 01:48:33;;;;;;;7.70;4.45;;;4.70;65.00;;;;;;5055576;28;20252;-66
2022/01/31 01:51:00;;;;;;;11.27;4.28;;;4.70;65.60;;;;;;5055519;28;20273;-66
2022/01/31 01:53:28;;;;;;;5.72;4.22;;;4.60;65.30;;;;;;5055196;28;20214;-66
2022/01/31 01:55:55;;;;;;;11.48;4.07;;;4.60;65.20;;;;;;5055275;28;20597;-66
2022/01/31 01:58:23;;;;;;;10.52;4.25;;;4.60;65.10;;;;;;5054322;28;20561;-66
2022/01/31 02:00:58;;;;;;;7.85;3.95;;;4.60;65.70;;;;;;5055042;28;20204;-66
2022/01/31 02:03:26;;;;;;;9.20;4.18;;;4.60;65.90;;;;;;5055012;28;20190;-66
2022/01/31 02:05:55;;;;;;;7.85;4.28;;;4.60;66.20;;;;;;5054943;28;20548;-66
2022/01/31 02:08:24;;;;;;;15.63;4.55;;;4.60;66.10;;;;;;5054760;28;20613;-67
2022/01/31 02:10:51;;;;;;;8.18;5.32;;;4.60;66.20;;;;;;5054584;28;20190;-66
2022/01/31 02:13:18;;;;;;;6.55;4.40;;;4.70;66.60;;;;;;5054891;28;20210;-66
2022/01/31 02:15:47;;;;;;;6.32;4.07;;;4.70;66.40;;;;;;5054915;28;20186;-66
2022/01/31 02:18:15;;;;;;;8.68;4.35;;;4.70;66.00;;;;;;5054160;28;20286;-66
2022/01/31 02:20:44;;;;;;;5.82;3.85;;;4.60;65.20;;;;;;5054800;28;20222;-67
2022/01/31 02:23:12;;;;;;;8.32;4.50;;;4.60;65.40;;;;;;5054434;28;20261;-68
2022/01/31 02:25:53;;;;;;;6.28;3.35;;;4.50;65.50;;;;;;5054749;28;20186;-66
2022/01/31 02:28:23;;;;;;;10.27;3.75;;;4.60;65.40;;;;;;5054633;28;20328;-67
2022/01/31 02:30:50;;;;;;;7.13;4.55;;;4.60;64.60;;;;;;5054787;28;20190;-66
2022/01/31 02:33:18;;;;;;;7.90;4.40;;;4.60;65.00;;;;;;5054520;28;20210;-66
2022/01/31 02:35:47;;;;;;;8.63;4.25;;;4.60;65.20;;;;;;5054325;28;20189;-66
2022/01/31 02:38:14;;;;;;;7.00;3.70;;;;;;;;;;5054563;28;20190;-66
2022/01/31 02:40:41;;;;;;;7.45;3.97;;;4.70;65.40;;;;;;5054457;28;20629;-66
2022/01/31 02:43:08;;;;;;;8.35;4.00;;;4.70;65.80;;;;;;5054322;28;20186;-66
2022/01/31 02:45:35;;;;;;;9.75;3.78;;;4.70;65.80;;;;;;5054371;28;20267;-66
2022/01/31 02:48:03;;;;;;;7.00;3.40;;;4.70;66.00;;;;;;5054099;28;20256;-66
2022/01/31 02:50:30;;;;;;;8.77;3.42;;;4.70;66.00;;;;;;5054230;28;20194;-66
2022/01/31 02:53:11;;;;;;;5.30;2.65;;;4.70;65.60;;;;;;5053878;28;20191;-66
2022/01/31 02:55:39;;;;;;;7.60;3.20;;;4.70;64.90;;;;;;5054444;28;20194;-66
2022/01/31 02:58:06;;;;;;;9.88;2.88;;;4.60;64.70;;;;;;5054155;28;20189;-67
2022/01/31 03:00:33;;;;;;;7.20;3.83;;;4.50;65.50;;;;;;5054137;28;20324;-66
2022/01/31 03:03:00;;;;;;;4.95;2.75;;;4.50;66.20;;;;;;5053989;28;20187;-66
2022/01/31 03:05:27;;;;;;;4.47;2.90;;;4.40;65.80;;;;;;5054083;28;20183;-67
2022/01/31 03:07:54;;;;;;;7.57;2.80;;;4.40;66.40;;;;;;5053686;28;20229;-66
2022/01/31 03:10:22;;;;;;;7.00;3.10;;;4.30;66.40;;;;;;5053584;28;20194;-67
2022/01/31 03:12:50;;;;;;;5.80;2.75;;;4.40;66.70;;;;;;5053667;28;20187;-66
2022/01/31 03:15:17;;;;;;;6.18;3.40;;;4.40;66.70;;;;;;5053874;28;20197;-66
2022/01/31 03:17:47;;;;;;;6.30;3.38;;;4.40;66.80;;;;;;5053471;28;20190;-68
2022/01/31 03:20:15;;;;;;;7.07;3.28;;;4.40;66.80;;;;;;5053834;28;20190;-66
2022/01/31 03:22:42;;;;;;;11.15;3.10;;;4.30;67.50;;;;;;5053297;28;20194;-66
2022/01/31 03:25:10;;;;;;;8.60;2.72;;;4.30;67.50;;;;;;5053304;28;20206;-66
2022/01/31 03:27:39;;;;;;;8.13;3.83;;;4.40;67.60;;;;;;5053173;28;20672;-67
2022/01/31 03:30:08;;;;;;;6.53;2.80;;;4.40;67.20;;;;;;5053553;28;20196;-66
2022/01/31 03:32:35;;;;;;;5.93;2.80;;;4.40;67.60;;;;;;5052871;28;20190;-66
2022/01/31 03:35:04;;;;;;;7.57;3.10;;;4.30;67.80;;;;;;5053405;28;20624;-66
2022/01/31 03:37:31;;;;;;;9.23;3.25;;;4.30;68.40;;;;;;5053469;28;20187;-66
2022/01/31 03:39:58;;;;;;;6.43;2.85;;;4.30;69.00;;;;;;5053356;28;20692;-66
2022/01/31 03:42:25;;;;;;;4.22;2.45;;;4.30;68.80;;;;;;5053195;28;20226;-66
2022/01/31 03:44:53;;;;;;;6.65;3.28;;;4.30;68.90;;;;;;5053307;28;20256;-66
2022/01/31 03:47:21;;;;;;;6.50;2.85;;;4.30;68.60;;;;;;5053224;28;20705;-66
2022/01/31 03:49:48;;;;;;;10.93;3.45;;;4.30;68.60;;;;;;5052971;28;20187;-66
2022/01/31 03:52:15;;;;;;;6.88;3.10;;;4.30;68.60;;;;;;5053041;28;20190;-66
2022/01/31 03:54:43;;;;;;;6.75;3.38;;;4.40;68.80;;;;;;5052805;28;20256;-66
2022/01/31 03:57:10;;;;;;;10.15;3.80;;;4.40;68.50;;;;;;5053060;28;20186;-66
2022/01/31 03:59:37;;;;;;;4.25;2.47;;;4.40;68.40;;;;;;5053014;28;20593;-66
2022/01/31 04:02:07;;;;;;;6.72;3.00;;;4.40;68.00;;;;;;5053128;28;20194;-66
2022/01/31 04:04:34;;;;;;;6.15;3.65;;;4.40;67.60;;;;;;5052588;28;20186;-67
2022/01/31 04:07:02;;;;;;;5.55;3.42;;;4.40;68.10;;;;;;5053293;28;20194;-66
2022/01/31 04:09:29;;;;;;;5.68;2.88;;;4.40;68.40;;;;;;5053030;28;20186;-67
2022/01/31 04:11:56;;;;;;;6.35;3.03;;;4.40;68.60;;;;;;5052831;28;20252;-66
2022/01/31 04:14:26;;;;;;;7.53;3.38;;;4.40;68.60;;;;;;5052559;28;20550;-67
2022/01/31 04:16:55;;;;;;;6.65;3.15;;;4.40;68.70;;;;;;5052404;28;20182;-66
2022/01/31 04:19:24;;;;;;;8.30;3.30;;;4.40;69.30;;;;;;5052572;28;20191;-66
2022/01/31 04:21:51;;;;;;;4.57;2.33;;;4.40;68.70;;;;;;5052000;28;20190;-66
2022/01/31 04:24:22;;;;;;;10.65;4.03;;;4.40;68.00;;;;;;5052969;28;20186;-67
2022/01/31 04:26:58;;;;;;;7.43;3.17;;;4.40;68.30;;;;;;5052466;28;20227;-66
2022/01/31 04:29:28;;;;;;;6.90;3.35;;;4.30;68.10;;;;;;5052545;28;20190;-66
2022/01/31 04:31:55;;;;;;;5.55;3.20;;;4.20;68.80;;;;;;5052604;28;20190;-67
2022/01/31 04:34:24;;;;;;;7.07;3.17;;;4.10;69.30;;;;;;5052021;28;20263;-66
2022/01/31 04:36:51;;;;;;;6.25;2.50;;;4.00;69.90;;;;;;5052728;28;20186;-66
2022/01/31 04:39:19;;;;;;;10.60;2.85;;;3.90;70.60;;;;;;5052519;28;20194;-66
2022/01/31 04:41:48;;;;;;;6.22;3.30;;;3.90;70.70;;;;;;5052374;28;20190;-66
2022/01/31 04:44:15;;;;;;;6.20;3.00;;;3.90;70.50;;;;;;5052119;28;20186;-67
2022/01/31 04:46:43;;;;;;;4.30;2.80;;;3.90;70.90;;;;;;5052298;28;20248;-66
2022/01/31 04:49:10;;;;;;;9.88;2.47;;;3.90;70.50;;;;;;5052527;28;20248;-66
2022/01/31 04:51:39;;;;;;;8.43;2.92;;;3.90;70.00;;;;;;5052445;28;20582;-67
2022/01/31 04:54:06;;;;;;;6.30;2.95;;;3.90;70.00;;;;;;5052169;28;20218;-66
2022/01/31 04:56:34;;;;;;;5.10;3.25;;;4.00;70.00;;;;;;5052278;28;20193;-66
2022/01/31 04:59:01;;;;;;;5.30;3.15;;;4.00;69.80;;;;;;5052216;28;20635;-66
2022/01/31 05:01:28;;;;;;;3.97;2.95;;;4.00;69.80;;;;;;5051871;28;20186;-66
2022/01/31 05:03:55;;;;;;;4.53;3.03;;;4.10;69.90;;;;;;5052446;28;20209;-66
2022/01/31 05:06:28;;;;;;;4.38;3.15;;;4.20;69.70;;;;;;5052244;28;20205;-66
2022/01/31 05:08:57;;;;;;;7.85;3.10;;;4.20;69.10;;;;;;5052424;28;20190;-66
2022/01/31 05:11:24;;;;;;;5.15;2.90;;;4.20;68.80;;;;;;5052364;28;20190;-66
2022/01/31 05:13:51;;;;;;;7.18;3.30;;;4.20;69.00;;;;;;5051871;28;20665;-67
2022/01/31 05:16:18;;;;;;;4.88;2.55;;;4.20;69.90;;;;;;5052120;28;20190;-66
2022/01/31 05:18:45;;;;;;;5.93;3.58;;;4.20;69.20;;;;;;5052194;28;20244;-66
2022/01/31 05:21:12;;;;;;;5.35;3.25;;;4.20;69.30;;;;;;5052325;28;20248;-66
2022/01/31 05:23:39;;;;;;;5.07;3.08;;;4.30;69.50;;;;;;5052360;28;20702;-66
2022/01/31 05:26:07;;;;;;;8.35;3.05;;;4.20;69.50;;;;;;5052222;28;20570;-66
2022/01/31 05:28:34;;;;;;;7.00;3.90;;;4.20;69.90;;;;;;5052025;28;20607;-67
2022/01/31 05:31:01;;;;;;;6.22;3.70;;;4.20;70.50;;;;;;5052186;28;20248;-66
2022/01/31 05:33:29;;;;;;;5.47;3.72;;;4.10;70.40;;;;;;5055028;28;20217;-66
2022/01/31 05:35:56;;;;;;;6.55;3.55;;;4.20;71.00;;;;;;5055905;28;20182;-66
2022/01/31 05:38:23;;;;;;;4.72;3.60;;;4.10;71.40;;;;;;5055780;28;20225;-66
2022/01/31 05:40:50;;;;;;;8.07;3.70;;;4.20;72.60;;;;;;5055905;28;20246;-66
2022/01/31 05:43:19;;;;;;;8.30;3.75;;;4.30;71.70;;;;;;5055220;28;20190;-66
2022/01/31 05:45:47;;;;;;;5.65;3.10;;;4.30;71.40;;;;;;5055771;28;20241;-66
2022/01/31 05:48:18;;;;;;;8.48;3.92;;;4.40;71.20;;;;;;5055084;28;20277;-66
2022/01/31 05:50:46;;;;;;;6.47;3.33;;;4.40;71.80;;;;;;5055649;28;20281;-69
2022/01/31 05:53:13;;;;;;;7.00;4.20;;;4.40;71.90;;;;;;5055178;28;20189;-66
2022/01/31 05:55:41;;;;;;;8.80;4.80;;;4.50;72.20;;;;;;5054823;28;20217;-66
2022/01/31 05:58:09;;;;;;;6.65;4.32;;;4.50;72.30;;;;;;5055249;28;20190;-67
2022/01/31 06:00:37;;;;;;;10.23;4.03;;;4.60;72.10;;;;;;5055342;28;20276;-68
2022/01/31 06:03:05;;;;;;;6.15;4.05;;;4.80;72.10;;;;;;5055192;28;20625;-67
2022/01/31 06:05:32;;;;;;;7.50;4.22;;;4.80;72.00;;;;;;5055319;28;20273;-66
2022/01/31 06:07:59;;;;;;;7.75;3.72;;;4.80;71.80;;;;;;5055264;28;20236;-66
2022/01/31 06:10:26;;;;;;;10.43;4.28;;;4.80;71.50;;;;;;5055296;28;20575;-66
2022/01/31 06:12:55;;;;;;;5.50;3.83;;;4.70;71.10;;;;;;5053027;28;20190;-66
2022/01/31 06:15:22;;;;;;;7.05;3.40;;;4.80;71.20;;;;;;5043463;28;20226;-66
2022/01/31 06:17:51;;;;;;;6.68;3.33;;;4.80;70.90;;;;;;5054287;28;20630;-66
2022/01/31 06:20:18;;;;;;;7.55;3.63;;;4.70;70.40;;;;;;5053557;28;20649;-66
2022/01/31 06:22:47;;;;;;;14.48;4.05;;;4.80;70.40;;;;;;5054369;28;20525;-67
2022/01/31 06:25:14;;;;;;;9.18;3.25;;;4.80;70.20;;;;;;5054150;28;20206;-66
2022/01/31 06:27:41;;;;;;;4.30;2.92;;;4.90;70.00;;;;;;5054340;28;20248;-66
2022/01/31 06:30:09;;;;;;;6.55;2.92;;;4.90;69.80;;;;;;5054122;28;20557;-67
2022/01/31 06:32:37;;;;;;;7.05;3.55;;;4.90;69.50;;;;;;5054370;28;20530;-66
2022/01/31 06:35:07;;;;;;;5.65;2.72;;;4.90;69.40;;;;;;5054007;28;20210;-66
2022/01/31 06:37:34;;;;;;;5.30;3.15;;;5.00;69.50;;;;;;5054357;28;20225;-67
2022/01/31 06:40:01;;;;;;;6.40;3.45;;;5.00;69.40;;;;;;5053877;28;20214;-66
2022/01/31 06:42:28;;;;;;;5.88;2.80;;;5.00;69.50;;;;;;5053868;28;20653;-66
2022/01/31 06:44:55;;;;;;;5.60;2.90;;;5.00;70.00;;;;;;5052717;28;20674;-66
2022/01/31 06:47:23;;;;;;;5.53;3.22;;;5.00;70.40;;;;;;5053625;28;20198;-66
2022/01/31 06:49:51;;;;;;;7.15;2.50;;;4.90;70.80;;;;;;5053212;28;20232;-66
2022/01/31 06:52:19;;;;;;;8.20;2.67;;;5.00;71.30;;;;;;5052932;28;20210;-66
2022/01/31 06:54:50;;;;;;;4.38;2.35;;;5.00;71.00;;;;;;5053715;28;20210;-66
2022/01/31 06:57:18;;;;;;;4.40;2.50;;;5.00;71.00;;;;;;5054159;28;20197;-66
2022/01/31 06:59:45;;;;;;;7.70;2.75;;;5.00;70.40;;;;;;5053973;28;20191;-66
2022/01/31 07:02:12;;;;;;;11.73;4.10;;;4.90;70.00;;;;;;5053896;28;20708;-67
2022/01/31 07:04:39;;;;;;;9.23;2.00;;;4.90;69.90;;;;;;5052595;28;20190;-66
2022/01/31 07:07:06;;;;;;;4.57;2.75;;;4.90;69.50;;;;;;5049810;28;20657;-66
2022/01/31 07:09:35;;;;;;;4.55;2.08;;;4.90;69.50;;;;;;5053041;28;20194;-66
2022/01/31 07:12:05;;;;;;;5.97;2.50;;;5.00;68.80;;;;;;5053579;28;20632;-66
2022/01/31 07:14:33;;;;;;;8.00;2.35;;;4.90;68.40;;;;;;5054085;28;20310;-66
2022/01/31 07:17:02;;;;;;;10.20;2.20;;;4.80;68.90;;;;;;5053379;28;20201;-66
2022/01/31 07:19:32;;;;;;;3.75;2.17;;;4.80;69.10;;;;;;5053208;28;20190;-66
2022/01/31 07:21:59;;;;;;;9.20;2.80;;;4.80;68.70;;;;;;5053360;28;20191;-66
2022/01/31 07:24:41;;;;;;;4.63;2.08;;;4.80;68.30;;;;;;5053693;28;20289;-66
2022/01/31 07:27:10;;;;;;;4.90;3.22;;;4.80;68.20;;;;;;5052623;28;20325;-67
2022/01/31 07:29:38;;;;;;;5.72;2.45;;;4.90;68.20;;;;;;5049027;28;20187;-67
2022/01/31 07:32:08;;;;;;;4.18;2.05;;;4.90;67.40;;;;;;5053596;28;20198;-67
2022/01/31 07:34:35;;;;;;;5.10;2.25;;;4.90;67.10;;;;;;5052829;28;20217;-67
2022/01/31 07:37:03;;;;;;;5.65;2.40;;;4.90;67.00;;;;;;5049141;28;20201;-66
2022/01/31 07:39:30;;;;;;;3.67;2.45;;;5.00;66.50;;;;;;5049673;28;20190;-66
2022/01/31 07:41:57;;;;;;;4.45;2.20;;;5.00;65.60;;;;;;5052264;28;20186;-66
2022/01/31 07:44:26;;;;;;;3.80;2.03;;;5.00;65.00;;;;;;5053316;28;20199;-66
2022/01/31 07:46:53;;;;;;;7.00;2.58;;;5.10;64.70;;;;;;5052173;28;20190;-66
2022/01/31 07:49:21;;;;;;;5.55;2.50;;;5.10;63.70;;;;;;5051887;28;20276;-66
2022/01/31 07:51:49;;;;;;;3.00;2.13;;;5.10;63.10;;;;;;5052628;28;20190;-66
2022/01/31 07:54:16;;;;;;;8.43;2.05;;;5.20;62.90;;;;;;5051865;28;20198;-66
2022/01/31 07:56:44;;;;;;;4.05;2.20;;;5.20;62.40;;;;;;5047323;28;20467;-66
2022/01/31 07:59:11;;;;;;;2.80;1.42;;;5.30;62.10;;;;;;5052896;28;20194;-66
2022/01/31 08:01:40;;;;;;;4.57;2.15;;;5.30;62.00;;;;;;5052397;28;20187;-68
2022/01/31 08:04:09;;;;;;;7.68;2.47;;;5.40;61.70;;;;;;5052588;28;20273;-66
2022/01/31 08:06:38;;;;;;;3.38;2.17;;;5.40;61.60;;;;;;5052284;28;20208;-66
2022/01/31 08:09:05;;;;;;;4.90;2.55;;;5.50;61.00;;;;;;5052638;28;20190;-66
2022/01/31 08:11:35;;;;;;;6.75;2.10;;;5.60;60.60;;;;;;5052405;28;20190;-66
2022/01/31 08:14:06;;;;;;;2.33;1.50;;;5.60;59.80;;;;;;5052670;28;20584;-66
2022/01/31 08:16:34;;;;;;;3.80;2.05;;;5.60;60.10;;;;;;5051989;28;20308;-67
2022/01/31 08:19:05;;;;;;;4.22;1.73;;;5.70;60.40;;;;;;5052281;28;20182;-66
2022/01/31 08:21:32;;;;;;;3.92;2.45;;;5.70;59.70;;;;;;5052449;28;20191;-66
2022/01/31 08:24:00;;;;;;;9.65;2.50;;;5.80;59.90;;;;;;5051608;28;20694;-66
2022/01/31 08:26:27;;;;;;;4.55;2.60;;;5.90;59.70;;;;;;5051060;28;20443;-66
2022/01/31 08:28:57;;;;;;;6.40;2.60;;;5.90;59.50;;;;;;5051706;28;20201;-67
2022/01/31 08:31:33;;;;;;;6.72;2.05;;;5.90;59.10;;;;;;5052044;28;20606;-67
2022/01/31 08:34:18;;;;;;;3.75;2.25;;;5.90;58.90;;;;;;5051652;28;20588;-66
2022/01/31 08:36:46;;;;;;;4.72;2.63;;;5.90;59.20;;;;;;5051353;28;20218;-67
2022/01/31 08:39:17;;;;;;;4.15;2.05;;;6.00;59.10;;;;;;5051734;28;20236;-67
2022/01/31 08:41:46;;;;;;;3.40;2.90;;;6.00;58.70;;;;;;5052357;28;20597;-66
2022/01/31 08:44:17;;;;;;;8.48;2.90;;;6.10;59.00;;;;;;5051403;28;20186;-67
2022/01/31 08:46:46;;;;;;;6.65;2.92;;;6.10;59.30;;;;;;5051319;28;20194;-67
2022/01/31 08:49:17;;;;;;;4.80;2.58;;;6.10;59.80;;;;;;5051341;28;20201;-67
2022/01/31 08:51:47;;;;;;;5.50;2.70;;;6.00;60.40;;;;;;5052123;28;20273;-66
2022/01/31 08:54:16;;;;;;;3.88;2.08;;;6.00;63.00;;;;;;5051340;28;20183;-66
2022/01/31 08:56:45;;;;;;;7.35;2.55;;;5.80;65.70;;;;;;5052028;28;20700;-66
2022/01/31 08:59:18;;;;;;;3.15;2.00;;;5.80;67.70;;;;;;5051688;28;20186;-66
2022/01/31 09:01:52;;;;;;;5.25;2.38;;;5.70;69.20;;;;;;5052105;28;20233;-66
2022/01/31 09:04:33;;;;;;;6.82;3.72;;;5.60;70.50;;;;;;5051910;28;20531;-66
2022/01/31 09:07:00;;;;;;;6.10;2.88;;;5.60;72.10;;;;;;5052761;28;20201;-66
2022/01/31 09:09:29;;;;;;;4.40;2.50;;;5.60;73.80;;;;;;5055742;28;20183;-66
2022/01/31 09:11:57;;;;;;;4.20;2.58;;;5.50;73.20;;;;;;5054811;28;20657;-66
2022/01/31 09:14:25;;;;;;;5.32;2.30;;;5.50;73.20;;;;;;5035916;28;20238;-70
2022/01/31 09:16:53;;;;;;;5.03;2.70;;;5.40;73.90;;;;;;5050624;28;20271;-66
2022/01/31 09:19:22;;;;;;;4.90;2.35;;;5.40;74.30;;;;;;5055742;28;20197;-67
2022/01/31 09:21:49;;;;;;;7.57;2.90;;;5.50;74.20;;;;;;5055421;28;20187;-67
2022/01/31 09:24:16;;;;;;;3.97;2.65;;;5.50;74.30;;;;;;5055986;28;20190;-66
2022/01/31 09:26:44;;;;;;;4.40;2.50;;;5.50;74.10;;;;;;5055211;28;20190;-66
2022/01/31 09:29:12;;;;;;;5.32;2.95;;;5.50;74.70;;;;;;5056621;28;20194;-67
2022/01/31 09:31:39;;;;;;;8.23;2.10;;;5.50;74.60;;;;;;5055374;28;20244;-67
2022/01/31 09:34:07;;;;;;;4.07;2.00;;;5.50;74.60;;;;;;5055313;28;20194;-66
2022/01/31 09:36:37;;;;;;;5.10;2.33;;;5.60;74.90;;;;;;5055177;28;20229;-66
2022/01/31 09:39:07;;;;;;;3.65;2.55;;;5.60;75.40;;;;;;5055235;28;20194;-66
2022/01/31 09:41:37;;;;;;;5.20;2.03;;;5.60;75.40;;;;;;5054695;28;20232;-68
2022/01/31 09:44:16;;;;;;;8.07;2.75;;;5.70;75.40;;;;;;5055439;28;20194;-66
2022/01/31 09:47:03;;;;;;;2.63;1.80;;;5.70;75.10;;;;;;5054881;28;20194;-66
2022/01/31 09:49:30;;;;;;;3.70;2.55;;;5.70;74.90;;;;;;5055450;28;20190;-66
2022/01/31 09:52:00;;;;;;;2.80;1.65;;;5.70;75.10;;;;;;5054709;28;20210;-66
2022/01/31 09:54:28;;;;;;;3.30;2.20;;;5.70;74.90;;;;;;5054553;28;20265;-66
2022/01/31 09:56:55;;;;;;;3.63;1.95;;;5.70;74.60;;;;;;5054836;28;20286;-66
2022/01/31 09:59:22;;;;;;;4.60;2.53;;;5.70;74.90;;;;;;5054309;28;20198;-66
2022/01/31 10:01:54;;;;;;;5.00;2.92;;;5.70;75.10;;;;;;5054494;28;20236;-66
2022/01/31 10:04:29;;;;;;;4.07;2.13;;;5.70;75.10;;;;;;5050747;28;20744;-67
2022/01/31 10:06:59;;;;;;;4.40;2.25;;;5.70;75.80;;;;;;5053427;28;20212;-67
2022/01/31 10:09:28;;;;;;;4.28;2.33;;;5.70;75.10;;;;;;5053551;28;20206;-67
2022/01/31 10:12:07;;;;;;;4.63;2.30;;;5.60;75.10;;;;;;5054225;28;20198;-66
2022/01/31 10:17:24;;;;;;;7.10;4.00;;;5.60;76.40;;;;;;5053484;28;20224;-66
2022/01/31 10:19:55;;;;;;;6.25;3.30;;;5.60;77.20;;;;;;5051742;28;20228;-66
2022/01/31 10:22:25;;;;;;;6.80;4.10;;;5.60;76.90;;;;;;5053683;28;20193;-66
2022/01/31 10:24:54;;;;;;;6.07;4.72;;;5.50;77.20;;;;;;5053667;28;20325;-66
2022/01/31 10:27:27;;;;;;;6.65;3.78;;;5.60;77.80;;;;;;5052712;28;20582;-67
2022/01/31 10:29:56;;;;;;;4.22;3.22;;;5.50;78.00;;;;;;5053163;28;20292;-66
2022/01/31 10:32:29;;;;;;;3.25;2.53;;;5.60;77.90;;;;;;5053193;28;20237;-67
2022/01/31 10:34:59;;;;;;;4.53;2.25;;;5.60;78.60;;;;;;5052806;28;20206;-66
2022/01/31 10:37:31;;;;;;;3.55;1.77;;;5.60;79.00;;;;;;5053243;28;20226;-66
2022/01/31 10:51:53;;;;;;;6.80;2.30;;;6.20;78.00;;;;;;4989363;28;20192;-67
2022/01/31 10:54:38;;;;;;;2.72;1.52;;;6.30;76.90;;;;;;4988538;28;20536;-66
2022/01/31 10:57:07;;;;;;;2.10;1.25;;;6.30;76.60;;;;;;5038873;28;20589;-66
2022/01/31 10:59:37;;;;;;;2.00;0.98;;;6.30;76.70;;;;;;5052193;28;20715;-66
2022/01/31 11:02:07;;;;;;;3.22;1.45;;;6.30;75.20;;;;;;5052182;28;20901;-66
2022/01/31 11:04:36;;;;;;;2.42;1.30;;;6.30;74.70;;;;;;5052882;28;20205;-66
2022/01/31 11:07:06;;;;;;;3.75;2.65;;;6.30;75.10;;;;;;5052492;28;20198;-66
2022/01/31 11:09:36;;;;;;;2.00;1.10;;;6.30;75.10;;;;;;5052337;28;20190;-67
2022/01/31 11:12:06;;;;;;;3.70;1.20;;;6.60;76.30;;;;;;5052265;28;20237;-66
2022/01/31 11:14:34;;;;;;;2.58;1.08;;;7.10;75.90;;;;;;5052043;28;20194;-67
2022/01/31 11:17:10;;;;;;;2.38;1.30;;;7.90;74.50;;;;;;5049802;28;20616;-66
2022/01/31 11:19:39;;;;;;;1.70;0.80;;;8.20;69.90;;;;;;5052032;28;20193;-67
2022/01/31 11:22:09;;;;;;;1.70;1.00;;;8.10;69.30;;;;;;5052434;28;20204;-66
2022/01/31 11:24:45;;;;;;;2.90;1.40;;;8.00;69.10;;;;;;5051959;28;20198;-69
2022/01/31 11:27:16;;;;;;;2.40;1.13;;;8.60;70.50;;;;;;5052377;28;20222;-67
2022/01/31 11:29:46;;;;;;;1.80;0.85;;;9.10;67.60;;;;;;5052862;28;20696;-67
2022/01/31 11:32:14;;;;;;;1.50;0.60;;;9.30;64.50;;;;;;5052998;28;20186;-67
2022/01/31 11:34:44;;;;;;;1.55;0.75;;;9.20;63.60;;;;;;5053009;28;20198;-66
2022/01/31 11:37:14;;;;;;;1.75;0.85;;;9.10;62.80;;;;;;5052942;28;20704;-66
2022/01/31 11:39:46;;;;;;;2.03;0.95;;;9.00;62.40;;;;;;5052740;28;20187;-66
2022/01/31 11:42:18;;;;;;;2.00;0.77;;;8.80;62.70;;;;;;5052959;28;20719;-66
2022/01/31 11:44:55;;;;;;;2.00;0.90;;;8.60;62.40;;;;;;5052877;28;20198;-67
2022/01/31 11:47:24;;;;;;;1.50;0.70;;;8.30;63.00;;;;;;5052548;28;20668;-66
2022/01/31 11:49:54;;;;;;;1.50;0.80;;;8.10;63.80;;;;;;5052762;28;20198;-66
2022/01/31 11:52:22;;;;;;;1.52;0.70;;;8.00;63.20;;;;;;5052532;28;20190;-66
2022/01/31 11:54:53;;;;;;;1.80;0.73;;;8.10;63.80;;;;;;5052758;28;20684;-67
2022/01/31 11:57:23;;;;;;;2.20;1.02;;;8.10;64.10;;;;;;5052323;28;20640;-66
2022/01/31 12:02:43;;;;;;;1.70;0.82;;;8.60;63.90;;;;;;5051881;28;20178;-67
2022/01/31 12:05:16;;;;;;;1.73;0.88;;;9.50;63.70;;;;;;5052851;28;20273;-67
2022/01/31 12:07:45;;;;;;;2.20;1.10;;;10.80;59.30;;;;;;5053147;28;20194;-66
2022/01/31 12:10:22;;;;;;;3.78;1.83;;;11.70;56.10;;;;;;5053080;28;20263;-67
2022/01/31 12:12:55;;;;;;;1.92;1.08;;;12.50;52.80;;;;;;5052912;28;20637;-66
2022/01/31 12:18:52;;;;;;;2.25;1.50;;;12.70;50.20;;;;;;5053176;28;20197;-66
2022/01/31 12:24:07;;;;;;;2.13;1.10;;;11.70;48.00;;;;;;5052284;28;20261;-69
2022/01/31 12:26:53;;;;;;;2.30;1.20;;;11.00;48.70;;;;;;5049381;28;20735;-68
2022/01/31 12:29:22;;;;;;;1.70;0.80;;;10.60;49.90;;;;;;5051802;28;20520;-67
2022/01/31 12:31:52;;;;;;;2.10;1.15;;;10.20;51.10;;;;;;5052414;28;20199;-67
2022/01/31 12:34:44;;;;;;;2.85;0.80;;;9.70;52.50;;;;;;5051239;28;20236;-66
2022/01/31 12:37:29;;;;;;;2.25;0.90;;;9.40;53.70;;;;;;5051256;28;20210;-66
2022/01/31 12:40:18;;;;;;;2.05;0.90;;;9.10;54.00;;;;;;5051973;28;20202;-66
2022/01/31 12:46:16;;;;;;;1.90;0.93;;;8.50;56.00;;;;;;5051412;28;20282;-67
2022/01/31 12:48:44;;;;;;;2.05;1.13;;;8.20;56.60;;;;;;5052683;28;20589;-66
2022/01/31 12:51:16;;;;;;;1.95;1.00;;;8.00;57.70;;;;;;5051116;28;20240;-67
2022/01/31 12:53:49;;;;;;;1.92;0.95;;;7.80;58.40;;;;;;5051519;28;20198;-66
2022/01/31 12:56:24;;;;;;;1.80;1.00;;;7.60;58.70;;;;;;5048217;28;20681;-74
2022/01/31 12:58:55;;;;;;;2.05;1.00;;;7.40;59.00;;;;;;5046188;28;20229;-66
2022/01/31 13:01:24;;;;;;;1.75;0.75;;;7.20;59.30;;;;;;5050845;28;20199;-66
2022/01/31 13:03:53;;;;;;;1.70;0.80;;;7.10;60.20;;;;;;5050334;28;20265;-66
2022/01/31 13:06:37;;;;;;;1.73;0.80;;;7.00;61.10;;;;;;5047842;28;20617;-66
2022/01/31 13:09:09;;;;;;;2.28;1.10;;;7.00;60.90;;;;;;5049605;28;20206;-66
2022/01/31 13:11:37;;;;;;;1.70;0.90;;;7.00;59.80;;;;;;5050603;28;20193;-66
2022/01/31 13:14:16;;;;;;;2.13;0.90;;;6.90;60.00;;;;;;5050569;28;20198;-65
2022/01/31 13:16:57;;;;;;;2.00;1.00;;;6.90;59.50;;;;;;5049877;28;20308;-66
2022/01/31 13:19:27;;;;;;;2.15;1.17;;;6.80;59.20;;;;;;5048192;28;20237;-66
2022/01/31 13:21:56;;;;;;;2.20;1.13;;;6.90;59.70;;;;;;5048070;28;20190;-67
2022/01/31 13:24:37;;;;;;;2.47;1.30;;;6.90;60.00;;;;;;5050842;28;20244;-66
2022/01/31 13:27:06;;;;;;;4.30;1.85;;;6.90;59.70;;;;;;5049112;28;20218;-66
2022/01/31 13:29:42;;;;;;;1.95;0.98;;;6.90;59.40;;;;;;5050033;28;20743;-66
2022/01/31 13:32:24;;;;;;;1.98;1.00;;;6.80;59.20;;;;;;5049744;28;20633;-66
2022/01/31 13:34:56;;;;;;;3.10;1.20;;;6.70;59.30;;;;;;5049438;28;20205;-66